Tiempo atmosférico en la estación meteorológica de Pedraza, Segovia (1107 m.)



Fecha
DESCASC
Temp. máxima en grados centígrados (hora)
DESCASC
Temp. mínima en grados centígrados (hora)
DESCASC
Temp. media en grados centígrados
DESCASC
Racha de viento máxima en m/sg (hora)
DESCASC
Velocidad máxima media en intervalos de 10 minutos(hora)
DESCASC
Precipitaciones diarias en mm
DESCASC
Precipitaciones de 00:00 a 06:00 en mm
DESCASC
Precipitaciones de 06:00 a 12:00 en mm
DESCASC
Precipitaciones de 12:00 a 18:00 en mm
DESCASC
Precipitaciones de 18:00 a 24:00 en mm
DESCASC
22-11-2020 14.8 (15:40) 2.6 (05:40) 8.7 6.39 (13:50) 3.33 (01:00) 0 0 0 0 0
21-11-2020 15.7 (15:40) 2.3 (08:00) 9 3.89 (04:10) 2.78 (20:10) 0 0 0 0 0
20-11-2020 11.1 (15:40) 0.3 (07:40) 5.7 4.72 (15:50) 3.06 (23:59) 0 0 0 0 0
19-11-2020 17.5 (15:40) 5.6 (00:00) 11.5 7.22 (16:40) 4.44 (16:40) 0 0 0 0 0
18-11-2020 20.4 (15:30) 7.9 (00:00) 14.1 4.72 (14:00) 3.06 (19:20) 0 0 0 0 0
17-11-2020 19.4 (15:30) 4.8 (00:00) 12.1 4.17 (14:30) 2.78 (14:30) 0 0 0 0 0
16-11-2020 14.5 (15:10) 5.9 (00:00) 10.2 7.78 (03:50) 4.72 (01:30) 1.4 1.4 0 0 0
15-11-2020 16 (15:40) 8.4 (00:00) 12.2 12.22 (12:10) 7.22 (12:10) 0 0 0 0 0
14-11-2020 14.1 (16:30) 6.3 (00:00) 10.2 5.83 (14:40) 3.06 (15:10) 0 0 0 0 0
13-11-2020 15 (16:20) 5.2 (00:00) 10.1 5 (17:20) 2.78 (17:20) 0 0 0 0 0
12-11-2020 14 (14:40) 5.9 (00:00) 10 6.67 (22:50) 4.17 (22:50) 0 0 0 0 0
11-11-2020 15.8 (15:10) 4 (00:00) 9.9 6.94 (15:30) 4.72 (15:30) 0 0 0 0 0
10-11-2020 13.2 (16:20) 4 (00:00) 8.6 6.39 (13:30) 2.78 (13:40) 0 0 0 0 0
09-11-2020 13.9 (15:40) 5.8 (00:00) 9.8 7.5 (01:00) 5.28 (01:00) 0 0 0 0 0
08-11-2020 14 (14:20) 5.9 (00:00) 10 9.72 (11:40) 5.28 (13:00) 0 0 0 0 0
07-11-2020 12.1 (00:10) 5.9 (00:00) 9 15.56 (03:20) 10 (03:20) 9.4 4.6 0.2 4.4 0.2
06-11-2020 16 (14:30) 10.4 (00:00) 13.2 17.22 (06:10) 11.11 (03:10) 6.2 0.2 0 0.8 5.2
05-11-2020 11.4 (14:10) 7.1 (00:00) 9.2 16.67 (20:30) 10.83 (20:30) 9.4 0.4 2.2 3.6 3.2
04-11-2020 9.7 (15:10) 4.1 (00:00) 6.9 10.28 (22:40) 7.22 (22:40) 0.8 0 0 0.2 0.6
03-11-2020 12.4 (03:40) 5.8 (00:00) 9.1 6.39 (09:00) 3.61 (18:20) 4.4 0 3.2 1.2 0
02-11-2020 17.7 (14:10) 9.9 (00:00) 13.8 5 (13:30) 3.06 (13:30) 0 0 0 0 0
01-11-2020 19.6 (16:10) 6.6 (00:00) 13.1 5 (16:40) 3.33 (15:50) 0 0 0 0 0
31-10-2020 19.3 (14:50) 7.5 (00:00) 13.4 7.5 (14:00) 5.28 (14:00) 0 0 0 0 0
30-10-2020 19 (15:50) 5.6 (00:00) 12.3 3.89 (06:30) 3.61 (06:30) 0 0 0 0 0
29-10-2020 18.2 (16:10) 4.4 (00:00) 11.3 5 (09:30) 3.61 (09:20) 0 0 0 0 0
28-10-2020 14.6 (16:30) 9.7 (00:00) 12.2 10 (07:30) 5 (15:00) 1.2 0.2 0.6 0.4 0

Gráficas

Temp. máximas Temp. mínimas Temp. medias Precipitaciones Rachas de viento máximas Velocidades máximas media en intervalos de 10 minutos

Datos horarios

Fecha y hora oficial Temperatura (ºC) Velocidad del viento (km/h) Dirección del viento Racha (km/h) Dirección de racha Precipitación (mm) Presión (hPa) Tendencia (hPa) Humedad (%)
2020-11-26 23:00:00 9.9 12 Sudeste 42 Este 0 -- -- 70
2020-11-26 22:00:00 10.1 15 Sudeste 45 Sudeste 0 -- -- 71
2020-11-26 21:00:00 9.9 10 Sudeste 35 Este 0 -- -- 73
2020-11-26 20:00:00 9.7 17 Este 43 Este 0 -- -- 72
2020-11-26 19:00:00 9.7 16 Este 35 Sudeste 0 -- -- 74
2020-11-26 18:00:00 8.8 19 Sudeste 45 Sudeste 0.6 -- -- 83
2020-11-26 17:00:00 8.7 16 Este 32 Sudeste 0.4 -- -- 82
2020-11-26 16:00:00 9.1 12 Este 36 Sudeste 0 -- -- 78
2020-11-26 15:00:00 8.6 18 Sudeste 33 Sur 0.6 -- -- 82
2020-11-26 14:00:00 8.3 14 Este 40 Sudeste 0.4 -- -- 84
2020-11-26 13:00:00 8.3 18 Sudeste 50 Este 0 -- -- 82
2020-11-26 12:00:00 9.2 32 Sudeste 57 Sudeste 0 -- -- 77
2020-11-26 11:00:00 9.2 27 Sudeste 49 Sudeste 0 -- -- 79
2020-11-26 10:00:00 8.4 10 Este 65 Este 0 -- -- 81
2020-11-26 09:00:00 6.9 8 Sudoeste 27 Sur 0 -- -- 83
2020-11-26 08:00:00 6.5 9 Este 51 Sur 0 -- -- 83
2020-11-26 07:00:00 6.2 30 Sudeste 48 Sudeste 0 -- -- 84
2020-11-26 06:00:00 6.7 21 Sur 55 Este 0 -- -- 81
2020-11-26 05:00:00 7.1 22 Sudeste 51 Sudeste 0.2 -- -- 82
2020-11-26 04:00:00 6.4 10 Sur 68 Sudeste 0 -- -- 88
2020-11-26 03:00:00 6.6 37 Sudeste 62 Sudeste 0.2 -- -- 88
2020-11-26 02:00:00 6.9 24 Sudeste 42 Sur 0.2 -- -- 88
2020-11-26 01:00:00 7.2 25 Sudeste 45 Sudeste 0 -- -- 88
2020-11-26 00:00:00 7.8 18 Sudeste 36 Sudeste 0 -- -- 82
2020-11-25 23:00:00 7.5 16 Sur 58 Sudeste 0 -- -- 87
2020-11-25 22:00:00 8.3 12 Sudeste 48 Sudeste 0 -- -- 77
2020-11-25 21:00:00 8.2 14 Sur 46 Este 0 -- -- 76
2020-11-25 20:00:00 8.4 18 Sudeste 43 Sudeste 0 -- -- 73
2020-11-25 19:00:00 8.2 27 Sudeste 55 Sur 0 -- -- 74
2020-11-25 18:00:00 7.6 21 Sudeste 48 Sur 0 -- -- 75
2020-11-25 17:00:00 7.8 28 Sudeste 49 Sur 0 -- -- 71
2020-11-25 16:00:00 10 24 Sudeste 47 Sur 0 -- -- 61
2020-11-25 15:00:00 10.1 30 Sur 46 Sur 0 -- -- 62
2020-11-25 14:00:00 10.6 23 Sur 53 Sur 0 -- -- 60
2020-11-25 13:00:00 10 20 Sudeste 37 Sur 0 -- -- 62
2020-11-25 12:00:00 9.6 19 Sudeste 30 Sudeste 0 -- -- 63
2020-11-25 11:00:00 9.4 14 Sur 22 Sur 0 -- -- 59
2020-11-25 10:00:00 6.8 6 Sudeste 14 Este 0 -- -- 69
2020-11-25 09:00:00 3 9 Este 12 Este 0 -- -- 80
2020-11-25 08:00:00 2.4 8 Sudeste 11 Este 0 -- -- 81
2020-11-25 07:00:00 2.9 9 Este 14 Sudeste 0 -- -- 82
2020-11-25 06:00:00 2.6 8 Sudeste 12 Sur 0 -- -- 83
2020-11-25 05:00:00 1.7 7 Sudeste 14 Sudeste 0 -- -- 86
2020-11-25 04:00:00 2.2 4 Sudeste 9 Este 0 -- -- 85
2020-11-25 03:00:00 3 5 Sudeste 8 Sudeste 0 -- -- 88
2020-11-25 02:00:00 4.2 6 Este 9 Este 0 -- -- 84
2020-11-25 01:00:00 2.7 4 Sudeste 10 Este 0 -- -- 88
2020-11-25 00:00:00 2.3 6 Sudeste 10 Este 0 -- -- 88
2020-11-24 23:00:00 3.9 9 Sudeste 12 Sudeste 0 -- -- 85
2020-11-24 22:00:00 4.5 8 Sudeste 13 Sudeste 0 -- -- 82
2020-11-24 21:00:00 4.2 3 Sudeste 6 Sudeste 0 -- -- 82
2020-11-24 20:00:00 5.6 0 Calma 6 Sudeste 0 -- -- 76
2020-11-24 19:00:00 6.3 4 Sudeste 6 Sudeste 0 -- -- 74
2020-11-24 18:00:00 9.1 4 Norte 7 Noroeste 0 -- -- 66
2020-11-24 17:00:00 11.6 3 Oeste 8 Oeste 0 -- -- 53
2020-11-24 16:00:00 12.2 5 Noroeste 9 Oeste 0 -- -- 49
2020-11-24 15:00:00 12.3 7 Noroeste 13 Noroeste 0 -- -- 51
2020-11-24 14:00:00 12.2 7 Noroeste 16 Oeste 0 -- -- 54
2020-11-24 13:00:00 12 7 Noroeste 13 Noroeste 0 -- -- 52
2020-11-24 12:00:00 10.8 7 Oeste 12 Oeste 0 -- -- 52
2020-11-24 11:00:00 9.3 2 Sudoeste 8 Oeste 0 -- -- 56
2020-11-24 10:00:00 7.7 3 Sur 6 Sudoeste 0 -- -- 59
2020-11-24 09:00:00 5.8 2 Sudeste 4 Sudoeste 0 -- -- 64
2020-11-24 08:00:00 3.8 3 Sudeste 10 Sudeste 0 -- -- 74
2020-11-24 07:00:00 3.5 6 Sudeste 9 Sudeste 0 -- -- 74
2020-11-24 06:00:00 3.1 4 Sudeste 8 Sur 0 -- -- 78
2020-11-24 05:00:00 4.2 3 Este 10 Sudeste 0 -- -- 75
2020-11-24 04:00:00 3.6 10 Sudeste 12 Sudeste 0 -- -- 78
2020-11-24 03:00:00 5.9 6 Este 10 Sudeste 0 -- -- 68
2020-11-24 02:00:00 4.8 6 Sudeste 11 Sudeste 0 -- -- 70
2020-11-24 01:00:00 4.5 8 Sudeste 9 Sudeste 0 -- -- 70
2020-11-24 00:00:00 5.2 0 Calma 6 Sudeste 0 -- -- 69
2020-11-23 23:00:00 5.1 5 Sudeste 8 Sudeste 0 -- -- 70
2020-11-23 22:00:00 5.4 3 Sudeste 8 Sudeste 0 -- -- 69
2020-11-23 21:00:00 6.3 5 Sudeste 9 Este 0 -- -- 66
2020-11-23 20:00:00 7.5 8 Sudeste 10 Sudeste 0 -- -- 64
2020-11-23 19:00:00 7.6 8 Sudeste 10 Sudeste 0 -- -- 63
2020-11-23 18:00:00 12 0 Calma 8 Noroeste 0 -- -- 47
2020-11-23 17:00:00 14.6 5 Noroeste 9 Noroeste 0 -- -- 41
2020-11-23 16:00:00 15.3 5 Noroeste 10 Norte 0 -- -- 40
2020-11-23 15:00:00 14.9 5 Noroeste 11 Noroeste 0 -- -- 41
2020-11-23 14:00:00 14.6 5 Noroeste 10 Noroeste 0 -- -- 40
2020-11-23 13:00:00 13.3 5 Noroeste 9 Noroeste 0 -- -- 48
2020-11-23 12:00:00 11.6 5 Noroeste 9 Noroeste 0 -- -- 48
2020-11-23 11:00:00 10.5 6 Noroeste 8 Noroeste 0 -- -- 55
2020-11-23 10:00:00 8.4 4 Sudeste 7 Sudeste 0 -- -- 61
2020-11-23 09:00:00 4.6 0 Calma 8 Sudeste 0 -- -- 69
2020-11-23 08:00:00 2.8 6 Sudeste 8 Sudeste 0 -- -- 68
2020-11-23 07:00:00 3.6 5 Sudeste 12 Sudeste 0 -- -- 68
2020-11-23 06:00:00 2.4 10 Sudeste 12 Sudeste 0 -- -- 74
2020-11-23 05:00:00 3.1 2 Sudeste 7 Sudeste 0 -- -- 73
2020-11-23 04:00:00 4 0 Calma 10 Sudeste 0 -- -- 68
2020-11-23 03:00:00 4.2 6 Sudeste 11 Sudeste 0 -- -- 70
2020-11-23 02:00:00 3.9 10 Sudeste 15 Sudeste 0 -- -- 74
2020-11-23 01:00:00 4 3 Este 9 Sudeste 0 -- -- 72
2020-11-23 00:00:00 4 9 Sudeste 10 Sudeste 0 -- -- 75
2020-11-22 23:00:00 4.3 8 Sudeste 8 Sudeste 0 -- -- 75
2020-11-22 22:00:00 5.1 4 Sudeste 10 Sudeste 0 -- -- 72
2020-11-22 21:00:00 6 6 Sudeste 9 Sudeste 0 -- -- 69
2020-11-22 20:00:00 6.5 5 Sudeste 10 Sudeste 0 -- -- 68
2020-11-22 19:00:00 7.5 7 Sudeste 8 Sudeste 0 -- -- 63
2020-11-22 18:00:00 11.9 2 Oeste 10 Oeste 0 -- -- 46
2020-11-22 17:00:00 14.3 7 Oeste 12 Noroeste 0 -- -- 42
2020-11-22 16:00:00 14.8 7 Oeste 15 Oeste 0 -- -- 41
2020-11-22 15:00:00 14.4 8 Oeste 17 Oeste 0 -- -- 42
2020-11-22 14:00:00 14.3 8 Oeste 23 Oeste 0 -- -- 38
2020-11-22 13:00:00 13.6 11 Noroeste 17 Oeste 0 -- -- 41
2020-11-22 12:00:00 12.5 9 Oeste 15 Oeste 0 -- -- 43
2020-11-22 11:00:00 10.7 3 Noroeste 6 Oeste 0 -- -- 44
2020-11-22 10:00:00 9.9 3 Sur 6 Sudeste 0 -- -- 49
2020-11-22 09:00:00 4.2 5 Sudeste 7 Sudeste 0 -- -- 61
2020-11-22 08:00:00 3.7 5 Sudeste 8 Sudeste 0 -- -- 59
2020-11-22 07:00:00 4.3 6 Sudeste 10 Sudeste 0 -- -- 57
2020-11-22 06:00:00 2.7 4 Sudeste 6 Sudeste 0 -- -- 66
2020-11-22 05:00:00 2.9 3 Sudeste 5 Sur 0 -- -- 58
2020-11-22 04:00:00 5.4 7 Este 13 Sudeste 0 -- -- 46
2020-11-22 03:00:00 4 10 Sudeste 12 Sudeste 0 -- -- 54
2020-11-22 02:00:00 4.4 0 Calma 14 Este 0 -- -- 59
2020-11-22 01:00:00 4 12 Sudeste 13 Sudeste 0 -- -- 61
2020-11-22 00:00:00 5.7 8 Sudeste 9 Sudeste 0 -- -- 52
2020-11-21 23:00:00 5.5 6 Sudeste 7 Sudeste 0 -- -- 57
2020-11-21 22:00:00 5.2 5 Sur 9 Sur 0 -- -- 52
2020-11-21 21:00:00 6.3 8 Sudeste 13 Este 0 -- -- 50
2020-11-21 20:00:00 7.3 10 Este 11 Este 0 -- -- 56
2020-11-21 19:00:00 8.2 8 Sudeste 10 Sudeste 0 -- -- 55
2020-11-21 18:00:00 12.4 0 Calma 5 Noroeste 0 -- -- 43
2020-11-21 17:00:00 15.3 4 Noroeste 10 Noroeste 0 -- -- 35
2020-11-21 16:00:00 15.7 6 Noroeste 9 Noroeste 0 -- -- 34
2020-11-21 15:00:00 14.7 0 Calma 12 Noroeste 0 -- -- 35
2020-11-21 14:00:00 13.2 5 Norte 10 Noroeste 0 -- -- 39
2020-11-21 13:00:00 11.6 3 Noroeste 10 Sudoeste 0 -- -- 44
2020-11-21 12:00:00 9.9 4 Noroeste 11 Noroeste 0 -- -- 46
2020-11-21 11:00:00 8.5 5 Oeste 8 Oeste 0 -- -- 53
2020-11-21 10:00:00 7.2 2 Sur 4 Sur 0 -- -- 55
2020-11-21 09:00:00 3.9 2 Este 4 Sudeste 0 -- -- 66
2020-11-21 08:00:00 2.3 3 Sudeste 5 Sudeste 0 -- -- 67
2020-11-21 07:00:00 3.6 0 Calma 10 Sudeste 0 -- -- 61
2020-11-21 06:00:00 3.1 3 Sudeste 8 Este 0 -- -- 71
2020-11-21 05:00:00 4.1 2 Sur 14 Este 0 -- -- 67
2020-11-21 04:00:00 4.2 2 Sudeste 12 Este 0 -- -- 68
2020-11-21 03:00:00 3.8 8 Sudeste 10 Sudeste 0 -- -- 68
2020-11-21 02:00:00 4.6 8 Este 9 Este 0 -- -- 65
2020-11-21 01:00:00 4.7 0 Calma 10 Este 0 -- -- 65
2020-11-21 00:00:00 4.5 11 Sudeste 13 Sudeste 0 -- -- 68
2020-11-20 23:00:00 3.9 5 Este 12 Sudeste 0 -- -- 75
2020-11-20 22:00:00 3.5 6 Sudeste 12 Sudeste 0 -- -- 78
2020-11-20 21:00:00 3 3 Este 9 Sudeste 0 -- -- 82
2020-11-20 20:00:00 4.5 6 Sudeste 9 Sudeste 0 -- -- 79
2020-11-20 19:00:00 5.2 8 Sudeste 10 Sudeste 0 -- -- 76
2020-11-20 18:00:00 8 2 Norte 9 Noroeste 0 -- -- 63
2020-11-20 17:00:00 9.8 6 Norte 12 Norte 0 -- -- 61
2020-11-20 16:00:00 10.7 8 Norte 17 Noroeste 0 -- -- 61
2020-11-20 15:00:00 10.3 5 Noroeste 10 Noroeste 0 -- -- 62
2020-11-20 14:00:00 8.4 8 Noroeste 15 Oeste 0 -- -- 79
2020-11-20 13:00:00 7.3 6 Noroeste 10 Noroeste 0 -- -- 84
2020-11-20 12:00:00 6.1 6 Noroeste 10 Oeste 0 -- -- 85
2020-11-20 11:00:00 5.4 5 Noroeste 7 Noroeste 0 -- -- 86
2020-11-20 10:00:00 3.8 0 Calma 4 Sudeste 0 -- -- 91
2020-11-20 09:00:00 1.1 0 Calma 5 Sudeste 0 -- -- 96
2020-11-20 08:00:00 0.6 3 Sudeste 5 Sudeste 0 -- -- 97
2020-11-20 07:00:00 1.1 2 Sur 6 Sur 0 -- -- 96
2020-11-20 06:00:00 1.1 5 Sur 7 Nordeste 0 -- -- 95
2020-11-20 05:00:00 2.5 4 Este 7 Sudeste 0 -- -- 96
2020-11-20 04:00:00 2.7 3 Sur 5 Sur 0 -- -- 93
2020-11-20 03:00:00 4.1 2 Sudoeste 7 Oeste 0 -- -- 92
2020-11-20 02:00:00 5 6 Noroeste 9 Norte 0 -- -- 90
2020-11-20 01:00:00 5.7 8 Sur 11 Sur 0 -- -- 87
2020-11-20 00:00:00 6.1 6 Este 9 Sudeste 0 -- -- 93
2020-11-19 23:00:00 7.1 7 Nordeste 9 Nordeste 0 -- -- 90
2020-11-19 22:00:00 6.8 5 Sudeste 8 Sudeste 0 -- -- 89
2020-11-19 21:00:00 7.9 5 Sudeste 8 Este 0 -- -- 86
2020-11-19 20:00:00 9.9 7 Nordeste 12 Norte 0 -- -- 83
2020-11-19 19:00:00 11.7 5 Nordeste 14 Norte 0 -- -- 76
2020-11-19 18:00:00 13.5 6 Norte 22 Noroeste 0 -- -- 69
2020-11-19 17:00:00 16.1 12 Noroeste 26 Noroeste 0 -- -- 58
2020-11-19 16:00:00 17.3 9 Noroeste 15 Noroeste 0 -- -- 55
2020-11-19 15:00:00 16.9 8 Noroeste 17 Norte 0 -- -- 58
2020-11-19 14:00:00 16.4 10 Norte 16 Noroeste 0 -- -- 56
2020-11-19 13:00:00 16.5 5 Norte 12 Nordeste 0 -- -- 57
2020-11-19 12:00:00 14.6 3 Sudoeste 8 Noroeste 0 -- -- 63
2020-11-19 11:00:00 13.5 0 Calma 6 Sur 0 -- -- 66
2020-11-19 10:00:00 11.4 0 Calma 6 Sudeste 0 -- -- 68
2020-11-19 09:00:00 8.1 8 Sudeste 12 Sudeste 0 -- -- 75
2020-11-19 08:00:00 8 3 Nordeste 9 Sudeste 0 -- -- 71
2020-11-19 07:00:00 8.6 4 Sudeste 11 Sudeste 0 -- -- 69
2020-11-19 06:00:00 8.5 8 Sudeste 14 Sudeste 0 -- -- 68
2020-11-19 05:00:00 8.5 5 Sudeste 8 Este 0 -- -- 66
2020-11-19 04:00:00 9.9 3 Sudeste 10 Sudeste 0 -- -- 61
2020-11-19 03:00:00 9.5 5 Sudeste 9 Sudeste 0 -- -- 64
2020-11-19 02:00:00 10.4 7 Sudeste 9 Sudeste 0 -- -- 61
2020-11-19 01:00:00 9.7 6 Sudeste 8 Sudeste 0 -- -- 62
2020-11-19 00:00:00 9.8 5 Sudeste 10 Sudeste 0 -- -- 60
2020-11-18 23:00:00 9.6 8 Sudeste 9 Sudeste 0 -- -- 61
2020-11-18 22:00:00 10.4 3 Sudeste 8 Sudeste 0 -- -- 57
2020-11-18 21:00:00 11.1 7 Sudeste 10 Sudeste 0 -- -- 55
2020-11-18 20:00:00 11.6 8 Sudeste 13 Sudeste 0 -- -- 56
2020-11-18 19:00:00 12.4 9 Sudeste 10 Sudeste 0 -- -- 55
2020-11-18 18:00:00 15.7 0 Calma 10 Noroeste 0 -- -- 44
2020-11-18 17:00:00 19.1 8 Noroeste 13 Noroeste 0 -- -- 37
2020-11-18 16:00:00 20.3 8 Oeste 16 Oeste 0 -- -- 33
2020-11-18 15:00:00 20.3 9 Noroeste 15 Noroeste 0 -- -- 38
2020-11-18 14:00:00 19.7 10 Noroeste 17 Noroeste 0 -- -- 38
2020-11-18 13:00:00 18.8 7 Noroeste 11 Noroeste 0 -- -- 42
2020-11-18 12:00:00 17.5 3 Norte 6 Norte 0 -- -- 47
2020-11-18 11:00:00 16.9 0 Calma 5 Sudeste 0 -- -- 47
2020-11-18 10:00:00 14.2 4 Sudeste 8 Sur 0 -- -- 53
2020-11-18 09:00:00 9.7 6 Sudeste 10 Sudeste 0 -- -- 62
2020-11-18 08:00:00 9.3 4 Sudeste 7 Sudeste 0 -- -- 59
2020-11-18 07:00:00 9.1 5 Sur 10 Sur 0 -- -- 60
2020-11-18 06:00:00 9.2 7 Sur 9 Sudeste 0 -- -- 60
2020-11-18 05:00:00 9.4 6 Sur 10 Sur 0 -- -- 60
2020-11-18 04:00:00 9.9 8 Sur 11 Sur 0 -- -- 58
2020-11-18 03:00:00 10.7 3 Sudoeste 9 Sudoeste 0 -- -- 54
2020-11-18 02:00:00 9.7 4 Sur 9 Sur 0 -- -- 59
2020-11-18 01:00:00 10.1 4 Sudeste 8 Sur 0 -- -- 59
2020-11-18 00:00:00 10.5 5 Sudeste 9 Sur 0 -- -- 59
2020-11-17 23:00:00 10.2 7 Sur 11 Sudeste 0 -- -- 58
2020-11-17 22:00:00 10.1 8 Sudeste 10 Sudeste 0 -- -- 56
2020-11-17 21:00:00 10.8 8 Sudeste 11 Sudeste 0 -- -- 53
2020-11-17 20:00:00 10.5 9 Sudeste 12 Sudeste 0 -- -- 59
2020-11-17 19:00:00 11.5 8 Sudeste 10 Sudeste 0 -- -- 60
2020-11-17 18:00:00 15.4 3 Noroeste 9 Noroeste 0 -- -- 48
2020-11-17 17:00:00 18.6 6 Noroeste 13 Noroeste 0 -- -- 41
2020-11-17 16:00:00 19.3 8 Noroeste 13 Noroeste 0 -- -- 39
2020-11-17 15:00:00 18.9 6 Noroeste 15 Noroeste 0 -- -- 43
2020-11-17 14:00:00 18.5 4 Noroeste 9 Oeste 0 -- -- 42
2020-11-17 13:00:00 16.6 4 Noroeste 10 Oeste 0 -- -- 47
2020-11-17 12:00:00 14.9 2 Oeste 7 Noroeste 0 -- -- 42
2020-11-17 11:00:00 13.2 0 Calma 4 Noroeste 0 -- -- 47
2020-11-17 10:00:00 11.1 0 Calma 9 Sudeste 0 -- -- 62
2020-11-17 09:00:00 6.8 4 Este 8 Sudeste 0 -- -- 84
2020-11-17 08:00:00 5.6 8 Sudeste 12 Sudeste 0 -- -- 79
2020-11-17 07:00:00 4.9 3 Este 8 Este 0 -- -- 79
2020-11-17 06:00:00 6.1 9 Este 13 Sudeste 0 -- -- 74
2020-11-17 05:00:00 5.8 8 Sudeste 12 Sudeste 0 -- -- 70
2020-11-17 04:00:00 5.4 7 Sudeste 9 Sudeste 0 -- -- 69
2020-11-17 03:00:00 5.6 8 Sudeste 9 Sudeste -- -- -- 70
2020-11-17 02:00:00 5.3 9 Sudeste 13 Sudeste 0 -- -- 78
2020-11-17 01:00:00 5.4 5 Este 10 Sudeste 0 -- -- 95
2020-11-17 00:00:00 6.1 9 Sudeste 10 Sudeste 0 -- -- 90
2020-11-16 23:00:00 6.1 9 Este 11 Sudeste 0 -- -- 94
2020-11-16 22:00:00 6.7 5 Este 9 Este 0 -- -- 92
2020-11-16 21:00:00 7.5 8 Sudeste 9 Sudeste 0 -- -- 92
2020-11-16 20:00:00 8.5 5 Sudeste 8 Sudeste 0 -- -- 90
2020-11-16 19:00:00 9.9 0 Calma 8 Noroeste 0 -- -- 84
2020-11-16 18:00:00 12 5 Noroeste 12 Noroeste 0 -- -- 78
2020-11-16 17:00:00 13.2 8 Noroeste 16 Oeste 0 -- -- 75
2020-11-16 16:00:00 13.7 9 Oeste 18 Noroeste 0 -- -- 74
2020-11-16 15:00:00 14.4 6 Oeste 16 Oeste 0 -- -- 70
2020-11-16 14:00:00 13 8 Oeste 15 Noroeste 0 -- -- 76
2020-11-16 13:00:00 12.9 7 Oeste 20 Oeste 0 -- -- 79
2020-11-16 12:00:00 11.8 5 Noroeste 13 Noroeste 0 -- -- 90
2020-11-16 11:00:00 10.8 9 Noroeste 13 Noroeste 0 -- -- 97
2020-11-16 10:00:00 10.3 5 Oeste 17 Oeste 0 -- -- 98
2020-11-16 09:00:00 10.1 11 Oeste 17 Oeste 0 -- -- 98
2020-11-16 08:00:00 10.3 8 Oeste 17 Oeste 0 -- -- 98
2020-11-16 07:00:00 10.4 11 Noroeste 19 Oeste 0 -- -- 98
2020-11-16 06:00:00 11 12 Oeste 28 Oeste 0 -- -- 98
2020-11-16 05:00:00 11.1 15 Oeste 26 Oeste 0 -- -- 98
2020-11-16 04:00:00 11.3 17 Oeste 28 Oeste 1 -- -- 97
2020-11-16 03:00:00 11.5 12 Oeste 23 Oeste 0.2 -- -- 96
2020-11-16 02:00:00 11.8 12 Oeste 28 Oeste 0.2 -- -- 95
2020-11-16 01:00:00 12.3 14 Oeste 25 Sudoeste 0 -- -- 91
2020-11-16 00:00:00 12.3 15 Oeste 27 Oeste 0 -- -- 91
2020-11-15 23:00:00 13.4 15 Oeste 31 Sudoeste 0 -- -- 82
2020-11-15 22:00:00 13.4 14 Oeste 31 Oeste 0 -- -- 81
2020-11-15 21:00:00 13.2 14 Oeste 37 Oeste 0 -- -- 82
2020-11-15 20:00:00 13.7 18 Oeste 35 Oeste 0 -- -- 78
2020-11-15 19:00:00 14.2 19 Oeste 31 Oeste 0 -- -- 75
2020-11-15 18:00:00 14.6 18 Oeste 42 Oeste 0 -- -- 74
2020-11-15 17:00:00 15.2 21 Oeste 37 Oeste 0 -- -- 71
2020-11-15 16:00:00 15.5 26 Oeste 43 Oeste 0 -- -- 71
2020-11-15 15:00:00 15.4 22 Oeste 39 Oeste 0 -- -- 74
2020-11-15 14:00:00 15.7 24 Oeste 37 Sudoeste 0 -- -- 74
2020-11-15 13:00:00 15.7 18 Oeste 44 Oeste 0 -- -- 74
2020-11-15 12:00:00 15.5 23 Oeste 36 Sudoeste 0 -- -- 70
2020-11-15 11:00:00 14.9 19 Sudoeste 32 Sudoeste 0 -- -- 72
2020-11-15 10:00:00 14.2 19 Sudoeste 34 Sudoeste 0 -- -- 73
2020-11-15 09:00:00 13.6 11 Sudoeste 30 Sudoeste 0 -- -- 73
2020-11-15 08:00:00 13.4 12 Sudoeste 27 Sudoeste 0 -- -- 72
2020-11-15 07:00:00 12.8 13 Sudoeste 18 Sudoeste 0 -- -- 75
2020-11-15 06:00:00 12.4 6 Sudoeste 14 Sudoeste 0 -- -- 77
2020-11-15 05:00:00 11.7 8 Sudoeste 14 Sudoeste 0 -- -- 79
2020-11-15 04:00:00 11.2 8 Sudoeste 15 Sudoeste 0 -- -- 77
2020-11-15 03:00:00 10.8 8 Sudoeste 15 Sudoeste 0 -- -- 79
2020-11-15 02:00:00 8.7 6 Sur 10 Sur 0 -- -- 86
2020-11-15 01:00:00 9.5 3 Sudoeste 11 Sudoeste 0 -- -- 85
2020-11-15 00:00:00 10.5 8 Sur 13 Sudoeste 0 -- -- 85
2020-11-14 23:00:00 11.2 4 Oeste 9 Oeste 0 -- -- 89
2020-11-14 22:00:00 11.2 3 Sudoeste 12 Sudoeste 0 -- -- 87
2020-11-14 21:00:00 11.3 6 Sudoeste 18 Sudoeste 0 -- -- 84
2020-11-14 20:00:00 11.6 4 Sudoeste 8 Sudoeste 0 -- -- 78
2020-11-14 19:00:00 11.3 4 Sudeste 6 Sudeste 0 -- -- 78
2020-11-14 18:00:00 12.4 0 Calma 7 Oeste 0 -- -- 72
2020-11-14 17:00:00 13.5 3 Oeste 15 Sudoeste 0 -- -- 69
2020-11-14 16:00:00 13.7 9 Oeste 18 Oeste 0 -- -- 67
2020-11-14 15:00:00 13.8 10 Oeste 21 Sudoeste 0 -- -- 67
2020-11-14 14:00:00 13.5 3 Sur 8 Sudeste 0 -- -- 70
2020-11-14 13:00:00 12.2 4 Sudeste 7 Sudeste 0 -- -- 65
2020-11-14 12:00:00 11.6 3 Sur 5 Sur 0 -- -- 69
2020-11-14 11:00:00 10.6 0 Calma 3 Oeste 0 -- -- 72
2020-11-14 10:00:00 9.5 0 Calma 2 Este 0 -- -- 81
2020-11-14 09:00:00 8.4 0 Calma 5 Este 0 -- -- 80
2020-11-14 08:00:00 8.2 3 Este 8 Este 0 -- -- 79
2020-11-14 07:00:00 7.5 3 Este 9 Este 0 -- -- 80
2020-11-14 06:00:00 7.3 6 Este 7 Este 0 -- -- 74
2020-11-14 05:00:00 7.1 2 Este 5 Este 0 -- -- 79
2020-11-14 04:00:00 6.8 2 Este 8 Sudeste 0 -- -- 77
2020-11-14 03:00:00 6.3 5 Sudeste 7 Sudeste 0 -- -- 78
2020-11-14 02:00:00 8.2 3 Sudeste 9 Sudeste 0 -- -- 73
2020-11-14 01:00:00 8.2 5 Sudeste 7 Este 0 -- -- 77
2020-11-14 00:00:00 8.4 0 Calma 7 Sudeste 0 -- -- 80
2020-11-13 23:00:00 8.9 3 Este 10 Este 0 -- -- 78
2020-11-13 22:00:00 8.6 4 Sudeste 6 Este 0 -- -- 79
2020-11-13 21:00:00 9.3 5 Sudeste 8 Sudeste 0 -- -- 73
2020-11-13 20:00:00 9.3 5 Sudeste 10 Sur 0 -- -- 72
2020-11-13 19:00:00 9 8 Sudoeste 14 Sudoeste 0 -- -- 75
2020-11-13 18:00:00 10.5 8 Sudeste 18 Este 0 -- -- 67
2020-11-13 17:00:00 12.8 9 Este 16 Este 0 -- -- 58
2020-11-13 16:00:00 14.6 4 Sudoeste 12 Sudoeste 0 -- -- 55
2020-11-13 15:00:00 14.1 6 Sudoeste 12 Oeste 0 -- -- 54
2020-11-13 14:00:00 13.2 5 Oeste 14 Oeste 0 -- -- 57
2020-11-13 13:00:00 12.6 5 Noroeste 9 Oeste 0 -- -- 55
2020-11-13 12:00:00 11.6 0 Calma 6 Sudoeste 0 -- -- 62
2020-11-13 11:00:00 10.3 2 Sudoeste 5 Oeste 0 -- -- 67
2020-11-13 10:00:00 7.9 0 Calma 4 Este 0 -- -- 69
2020-11-13 09:00:00 5.5 3 Sudeste 6 Sudeste 0 -- -- 79
2020-11-13 08:00:00 5.5 0 Calma 7 Sudeste 0 -- -- 76
2020-11-13 07:00:00 6.8 7 Sudeste 8 Sudeste 0 -- -- 74
2020-11-13 06:00:00 7.7 4 Sudeste 10 Sudeste 0 -- -- 72
2020-11-13 05:00:00 8.2 8 Sur 14 Sur 0 -- -- 72
2020-11-13 04:00:00 8.7 7 Sudeste 15 Sur 0 -- -- 67
2020-11-13 03:00:00 8.5 3 Sur 14 Sur 0 -- -- 70
2020-11-13 02:00:00 8.8 4 Oeste 10 Sur 0 -- -- 69
2020-11-13 01:00:00 10.1 9 Sur 17 Sur 0 -- -- 55
2020-11-13 00:00:00 10.8 11 Sur 23 Sur 0 -- -- 51
2020-11-12 23:00:00 11 15 Sur 24 Sudeste 0 -- -- 46
2020-11-12 22:00:00 10.5 8 Sur 15 Sur 0 -- -- 44
2020-11-12 21:00:00 10.1 5 Sudoeste 10 Sudoeste 0 -- -- 66
2020-11-12 20:00:00 10 4 Sur 11 Sudeste 0 -- -- 50
2020-11-12 19:00:00 10.2 7 Sudeste 12 Sudeste 0 -- -- 51
2020-11-12 18:00:00 11.4 6 Este 10 Este 0 -- -- 54
2020-11-12 17:00:00 12.9 6 Nordeste 15 Nordeste 0 -- -- 59
2020-11-12 16:00:00 13.2 10 Nordeste 18 Nordeste 0 -- -- 62
2020-11-12 15:00:00 13.8 5 Nordeste 10 Nordeste 0 -- -- 55
2020-11-12 14:00:00 13.2 6 Nordeste 16 Norte 0 -- -- 56
2020-11-12 13:00:00 12.6 8 Norte 14 Norte 0 -- -- 66
2020-11-12 12:00:00 11.4 4 Norte 7 Norte 0 -- -- 69
2020-11-12 11:00:00 10.4 0 Calma 3 Este 0 -- -- 76
2020-11-12 10:00:00 8.3 4 Este 7 Este 0 -- -- 80
2020-11-12 09:00:00 6.4 5 Sudeste 10 Sudeste 0 -- -- 86
2020-11-12 08:00:00 6.6 6 Sudeste 10 Este 0 -- -- 83
2020-11-12 07:00:00 7.1 7 Sudeste 9 Este 0 -- -- 81
2020-11-12 06:00:00 7.4 8 Sudeste 11 Sudeste 0 -- -- 80
2020-11-12 05:00:00 7.1 6 Sudeste 8 Este 0 -- -- 80
2020-11-12 04:00:00 7.7 8 Sudeste 12 Sudeste 0 -- -- 75
2020-11-12 03:00:00 7 8 Sudeste 10 Sudeste 0 -- -- 79
2020-11-12 02:00:00 7 2 Sudeste 15 Sudeste 0 -- -- 80
2020-11-12 01:00:00 6.8 8 Sudeste 12 Sudeste 0 -- -- 80
2020-11-12 00:00:00 6.9 8 Sudeste 10 Sudeste 0 -- -- 77
2020-11-11 23:00:00 6 8 Sudeste 9 Sudeste 0 -- -- 81
2020-11-11 22:00:00 6.7 8 Este 13 Sudeste 0 -- -- 76
2020-11-11 21:00:00 5.5 10 Sudeste 13 Sudeste 0 -- -- 84
2020-11-11 20:00:00 7.1 6 Este 12 Sudeste 0 -- -- 77
2020-11-11 19:00:00 8.5 0 Calma 5 Sudeste 0 -- -- 70
2020-11-11 18:00:00 10.9 0 Calma 17 Noroeste 0 -- -- 61
2020-11-11 17:00:00 12.4 12 Noroeste 21 Oeste 0 -- -- 60
2020-11-11 16:00:00 14.8 16 Oeste 25 Oeste 0 -- -- 47
2020-11-11 15:00:00 15.5 4 Sudoeste 18 Oeste 0 -- -- 49
2020-11-11 14:00:00 14.9 9 Noroeste 19 Noroeste 0 -- -- 51
2020-11-11 13:00:00 14.6 3 Sudoeste 10 Oeste 0 -- -- 49
2020-11-11 12:00:00 13.1 3 Oeste 7 Sudoeste 0 -- -- 50
2020-11-11 11:00:00 11.9 2 Sudoeste 7 Oeste 0 -- -- 62
2020-11-11 10:00:00 11.3 2 Sudoeste 20 Sur 0 -- -- 60
2020-11-11 09:00:00 9 10 Sur 18 Sudeste 0 -- -- 67
2020-11-11 08:00:00 6.4 8 Sudeste 13 Sudeste 0 -- -- 76
2020-11-11 07:00:00 7.2 11 Sudeste 19 Sudeste 0 -- -- 77
2020-11-11 06:00:00 5.7 8 Sudeste 12 Sudeste 0 -- -- 79
2020-11-11 05:00:00 5.4 6 Este 9 Sudeste 0 -- -- 78
2020-11-11 04:00:00 7 8 Sudeste 14 Sur 0 -- -- 79
2020-11-11 03:00:00 5.9 6 Sudeste 11 Sudeste 0 -- -- 85
2020-11-11 02:00:00 5.5 5 Sudeste 12 Sudeste 0 -- -- 89
2020-11-11 01:00:00 5.2 6 Sudeste 10 Sudeste 0 -- -- 91
2020-11-11 00:00:00 4 0 Calma 6 Este 0 -- -- 90
2020-11-10 23:00:00 5.4 0 Calma 10 Este 0 -- -- 85
2020-11-10 22:00:00 4.9 6 Sudeste 8 Sudeste 0 -- -- 90
2020-11-10 21:00:00 6.3 0 Calma 5 Sudeste 0 -- -- 82
2020-11-10 20:00:00 6.7 0 Calma 10 Sudeste 0 -- -- 81
2020-11-10 19:00:00 8 7 Sudeste 10 Sudeste 0 -- -- 79
2020-11-10 18:00:00 11 4 Nordeste 8 Norte 0 -- -- 66
2020-11-10 17:00:00 12.6 5 Norte 13 Norte 0 -- -- 61
2020-11-10 16:00:00 12.9 5 Norte 13 Norte 0 -- -- 60
2020-11-10 15:00:00 12.6 5 Nordeste 14 Nordeste 0 -- -- 63
2020-11-10 14:00:00 12.5 5 Norte 23 Norte 0 -- -- 64
2020-11-10 13:00:00 12 4 Nordeste 15 Norte 0 -- -- 68
2020-11-10 12:00:00 11.4 4 Sudeste 7 Sudeste 0 -- -- 70
2020-11-10 11:00:00 10.6 6 Este 12 Este 0 -- -- 72
2020-11-10 10:00:00 9.4 4 Este 8 Sudeste 0 -- -- 83
2020-11-10 09:00:00 6.4 4 Sudeste 6 Este 0 -- -- 94
2020-11-10 08:00:00 6 0 Calma 3 Sudeste 0 -- -- 94
2020-11-10 07:00:00 5.6 0 Calma 6 Sudeste 0 -- -- 93
2020-11-10 06:00:00 6.7 3 Sudeste 6 Sudeste 0 -- -- 92
2020-11-10 05:00:00 6.6 3 Sudeste 6 Sudeste 0 -- -- 92
2020-11-10 04:00:00 5.9 4 Sudeste 6 Sudeste 0 -- -- 93
2020-11-10 03:00:00 4.9 5 Sudeste 7 Sudeste 0 -- -- 93
2020-11-10 02:00:00 5 4 Sudeste 6 Sudeste 0 -- -- 91
2020-11-10 01:00:00 5.1 4 Sudeste 6 Sudeste 0 -- -- 90
2020-11-10 00:00:00 5.8 4 Sudeste 8 Sudeste 0 -- -- 91
2020-11-09 23:00:00 6.5 6 Sudeste 8 Sudeste 0 -- -- 90
2020-11-09 22:00:00 6.9 6 Sudeste 8 Sudeste 0 -- -- 90
2020-11-09 21:00:00 6.2 4 Sudeste 6 Sudeste 0 -- -- 89
2020-11-09 20:00:00 6.9 4 Sudeste 5 Sudeste 0 -- -- 87
2020-11-09 19:00:00 8.3 2 Sur 8 Oeste 0 -- -- 81
2020-11-09 18:00:00 10.8 5 Noroeste 10 Oeste 0 -- -- 73
2020-11-09 17:00:00 11.1 7 Oeste 14 Oeste 0 -- -- 72
2020-11-09 16:00:00 12.5 10 Oeste 18 Sudoeste 0 -- -- 66
2020-11-09 15:00:00 12.7 12 Sudoeste 18 Oeste 0 -- -- 68
2020-11-09 14:00:00 11.9 9 Noroeste 20 Oeste 0 -- -- 73
2020-11-09 13:00:00 11.2 10 Noroeste 22 Noroeste 0 -- -- 78
2020-11-09 12:00:00 11.3 11 Noroeste 20 Oeste 0 -- -- 77
2020-11-09 11:00:00 10.3 14 Oeste 22 Oeste 0 -- -- 82
2020-11-09 10:00:00 9.9 10 Noroeste 14 Oeste 0 -- -- 88
2020-11-09 09:00:00 8.5 3 Sudoeste 6 Sudoeste 0 -- -- 92
2020-11-09 08:00:00 8.4 3 Oeste 10 Sudoeste 0 -- -- 89
2020-11-09 07:00:00 8.2 3 Sur 13 Noroeste 0 -- -- 89
2020-11-09 06:00:00 8.7 5 Nordeste 18 Noroeste 0 -- -- 87
2020-11-09 05:00:00 9.9 0 Calma 12 Sur 0 -- -- 77
2020-11-09 04:00:00 9.7 6 Este 14 Sur 0 -- -- 79
2020-11-09 03:00:00 9.5 2 Sudeste 6 Este 0 -- -- 81
2020-11-09 02:00:00 10.2 3 Sur 27 Sur 0 -- -- 77
2020-11-09 01:00:00 10.5 19 Sur 27 Sur 0 -- -- 74
2020-11-09 00:00:00 10 13 Sudeste 21 Sudeste 0 -- -- 79
2020-11-08 23:00:00 9.8 10 Sudeste 14 Sudeste 0 -- -- 78
2020-11-08 22:00:00 9.6 10 Sudeste 19 Sur 0 -- -- 75
2020-11-08 21:00:00 10.4 13 Sur 24 Sur 0 -- -- 74
2020-11-08 20:00:00 9.7 13 Sudeste 24 Sur 0 -- -- 77
2020-11-08 19:00:00 9.9 12 Sudeste 23 Sudeste 0 -- -- 77
2020-11-08 18:00:00 10.2 10 Sudeste 27 Sudeste 0 -- -- 75
2020-11-08 17:00:00 12.3 17 Sudeste 28 Sudeste 0 -- -- 69
2020-11-08 16:00:00 11.8 15 Sudeste 30 Sudeste 0 -- -- 70
2020-11-08 15:00:00 14 15 Sudeste 32 Sudeste 0 -- -- 62
2020-11-08 14:00:00 13.6 15 Sudeste 28 Sudeste 0 -- -- 63
2020-11-08 13:00:00 13.1 19 Sudeste 30 Sur 0 -- -- 65
2020-11-08 12:00:00 12.2 12 Sudeste 35 Sudeste 0 -- -- 69
2020-11-08 11:00:00 12.2 13 Sudeste 28 Sudeste 0 -- -- 73
2020-11-08 10:00:00 10.2 15 Sudeste 27 Sudeste 0 -- -- 78
2020-11-08 09:00:00 8.6 14 Sudeste 21 Sudeste 0 -- -- 83
2020-11-08 08:00:00 7.4 12 Sudeste 16 Sudeste 0 -- -- 82
2020-11-08 07:00:00 6.9 12 Sudeste 16 Este 0 -- -- 84
2020-11-08 06:00:00 6.9 8 Sudeste 20 Sur 0 -- -- 85
2020-11-08 05:00:00 6.6 11 Sudeste 19 Sur 0 -- -- 86
2020-11-08 04:00:00 6.3 10 Sudeste 14 Sudeste 0 -- -- 90
2020-11-08 03:00:00 6.2 10 Sudeste 16 Este 0 -- -- 92
2020-11-08 02:00:00 6.7 12 Este 18 Sudeste 0 -- -- 91
2020-11-08 01:00:00 6.4 8 Sudeste 14 Sudeste 0 -- -- 94
2020-11-08 00:00:00 5.9 7 Sudeste 9 Sudeste 0 -- -- 96
2020-11-07 23:00:00 6.7 6 Este 8 Este 0 -- -- 95
2020-11-07 22:00:00 7.9 4 Sudeste 9 Este 0 -- -- 93
2020-11-07 21:00:00 9.1 6 Sudeste 9 Sudeste 0 -- -- 94
2020-11-07 20:00:00 9.4 5 Sur 15 Sudoeste 0.2 -- -- 93
2020-11-07 19:00:00 9.9 3 Oeste 15 Oeste 0 -- -- 93
2020-11-07 18:00:00 10.3 3 Sur 8 Sudoeste 0 -- -- 91
2020-11-07 17:00:00 10.7 2 Oeste 13 Oeste 0.2 -- -- 93
2020-11-07 16:00:00 10.1 10 Noroeste 25 Sudoeste 1.4 -- -- 92
2020-11-07 15:00:00 10.1 8 Sudoeste 19 Oeste 0.4 -- -- 94
2020-11-07 14:00:00 9.1 13 Oeste 27 Sudoeste 2.4 -- -- 93
2020-11-07 13:00:00 11.1 19 Oeste 33 Oeste 0 -- -- 79
2020-11-07 12:00:00 11.4 18 Sudoeste 31 Sudoeste 0.2 -- -- 75
2020-11-07 11:00:00 10.7 6 Sudoeste 25 Sur 0 -- -- 84
2020-11-07 10:00:00 10.1 12 Sur 22 Sur 0 -- -- 83
2020-11-07 09:00:00 9.6 7 Sudoeste 24 Sudeste 0 -- -- 86
2020-11-07 08:00:00 9.5 12 Sudeste 27 Sudeste 0 -- -- 87
2020-11-07 07:00:00 9.2 2 Noroeste 28 Sudeste 0 -- -- 90
2020-11-07 06:00:00 9.6 15 Sudeste 32 Sur 0 -- -- 87
2020-11-07 05:00:00 9.6 17 Sudeste 33 Sudeste 0 -- -- 85
2020-11-07 04:00:00 9 16 Sudeste 56 Sur 2.6 -- -- 85
2020-11-07 03:00:00 9.5 30 Sur 52 Sur 1 -- -- 86
2020-11-07 02:00:00 10.2 18 Sur 33 Sur 0.6 -- -- 87
2020-11-07 01:00:00 11.7 14 Sudoeste 33 Sur 0.4 -- -- 88
2020-11-07 00:00:00 12 18 Sudeste 39 Sudeste 0.6 -- -- 87
2020-11-06 23:00:00 12.1 16 Sudeste 50 Sudeste 1.4 -- -- 87
2020-11-06 22:00:00 12.3 28 Sur 51 Sur 1 -- -- 82
2020-11-06 21:00:00 12.5 30 Sudeste 61 Sudeste 2.2 -- -- 83
2020-11-06 20:00:00 14.1 17 Sur 56 Sudeste 0 -- -- 70
2020-11-06 19:00:00 13.7 25 Este 50 Este 0 -- -- 77
2020-11-06 18:00:00 14 19 Sudeste 40 Sur 0.4 -- -- 78
2020-11-06 17:00:00 15.1 15 Sudeste 33 Sudeste 0.4 -- -- 71
2020-11-06 16:00:00 15.5 15 Sudeste 45 Sudeste 0 -- -- 68
2020-11-06 15:00:00 16 22 Sudeste 48 Sudeste 0 -- -- 66
2020-11-06 14:00:00 15.7 20 Sudeste 49 Este 0 -- -- 68
2020-11-06 13:00:00 14.9 22 Sudeste 62 Este 0 -- -- 69
2020-11-06 12:00:00 14.1 33 Sudeste 60 Sudeste 0 -- -- 69
2020-11-06 11:00:00 13.6 24 Sudeste 51 Sudeste 0 -- -- 71
2020-11-06 10:00:00 13 20 Este 52 Sudeste 0 -- -- 74
2020-11-06 09:00:00 11.4 11 Este 22 Sudeste 0 -- -- 82
2020-11-06 08:00:00 11.1 10 Este 30 Este 0 -- -- 82
2020-11-06 07:00:00 11.2 21 Sur 62 Sur 0 -- -- 80
2020-11-06 06:00:00 11 28 Sudeste 50 Sudeste 0 -- -- 80
2020-11-06 05:00:00 10.7 33 Sudeste 51 Sudeste 0.2 -- -- 83
2020-11-06 04:00:00 10.5 32 Sur 57 Sur 0 -- -- 84
2020-11-06 03:00:00 10.7 39 Sudeste 54 Sudeste 0 -- -- 84
2020-11-06 02:00:00 10.6 31 Sudeste 52 Sudeste 0 -- -- 86
2020-11-06 01:00:00 10.5 18 Sudeste 37 Sur 0 -- -- 88
2020-11-06 00:00:00 10.7 21 Sudeste 39 Sudeste 0 -- -- 86
2020-11-05 23:00:00 10.5 24 Sudeste 43 Sudeste 1.4 -- -- 86
2020-11-05 22:00:00 10.7 27 Sudeste 48 Sudeste 0 -- -- 81
2020-11-05 21:00:00 10.4 23 Este 60 Sudeste 0 -- -- 80
2020-11-05 20:00:00 9.9 15 Este 43 Este 0.4 -- -- 83
2020-11-05 19:00:00 10.3 22 Sudeste 47 Este 1.4 -- -- 85
2020-11-05 18:00:00 10.4 13 Este 27 Sudeste 1.4 -- -- 87
2020-11-05 17:00:00 10.6 13 Este 31 Sudeste 0.4 -- -- 85
2020-11-05 16:00:00 10.6 17 Sudeste 54 Sudeste 0.8 -- -- 83
2020-11-05 15:00:00 11.1 24 Sudeste 44 Este 0.4 -- -- 83
2020-11-05 14:00:00 11.2 17 Sudeste 35 Sudeste 0.2 -- -- 81
2020-11-05 13:00:00 10.8 13 Este 54 Este 0.4 -- -- 83
2020-11-05 12:00:00 10.5 15 Sudeste 41 Sudeste 1 -- -- 84
2020-11-05 11:00:00 9.6 10 Nordeste 46 Sudeste 1.2 -- -- 84
2020-11-05 10:00:00 10.1 15 Este 32 Sudeste 0 -- -- 75
2020-11-05 09:00:00 9.8 11 Este 32 Este 0 -- -- 75
2020-11-05 08:00:00 9.2 18 Este 34 Este 0 -- -- 74
2020-11-05 07:00:00 9.4 20 Este 47 Sudeste 0 -- -- 72
2020-11-05 06:00:00 9.4 33 Sudeste 51 Sudeste 0 -- -- 72
2020-11-05 05:00:00 9.2 35 Sudeste 51 Sudeste 0.2 -- -- 75
2020-11-05 04:00:00 8.8 29 Sudeste 45 Sudeste 0 -- -- 78
2020-11-05 03:00:00 8.6 22 Este 36 Este 0 -- -- 81
2020-11-05 02:00:00 7.5 14 Este 32 Este 0 -- -- 86
2020-11-05 01:00:00 7.3 12 Este 28 Este 0.2 -- -- 89
2020-11-05 00:00:00 7.2 22 Este 36 Sudeste 0.6 -- -- 89
2020-11-04 23:00:00 7 18 Este 37 Sudeste 0 -- -- 86
2020-11-04 22:00:00 7.4 13 Este 30 Este 0 -- -- 83
2020-11-04 21:00:00 7.3 20 Este 33 Este 0 -- -- 82
2020-11-04 20:00:00 7 10 Este 26 Este 0 -- -- 86
2020-11-04 19:00:00 7.1 9 Este 29 Este 0 -- -- 87
2020-11-04 18:00:00 7 13 Sudeste 37 Sudeste 0.2 -- -- 87
2020-11-04 17:00:00 9 10 Sudeste 28 Sudeste 0 -- -- 73
2020-11-04 16:00:00 9.3 14 Este 27 Sudeste 0 -- -- 69
2020-11-04 15:00:00 9.6 9 Este 23 Este 0 -- -- 70
2020-11-04 14:00:00 8.9 14 Este 22 Este 0 -- -- 74
2020-11-04 13:00:00 8.2 9 Nordeste 14 Nordeste 0 -- -- 81
2020-11-04 12:00:00 7.6 7 Este 15 Nordeste 0 -- -- 86
2020-11-04 11:00:00 6.9 9 Nordeste 14 Nordeste 0 -- -- 90
2020-11-04 10:00:00 5.8 5 Norte 10 Norte 0 -- -- 95
2020-11-04 09:00:00 4.4 3 Sur 9 Nordeste 0 -- -- 98
2020-11-04 08:00:00 4.4 6 Norte 10 Norte 0 -- -- 98
2020-11-04 07:00:00 4.9 4 Norte 7 Nordeste 0 -- -- 99
2020-11-04 06:00:00 4.9 4 Nordeste 11 Nordeste 0 -- -- 99
2020-11-04 05:00:00 5.1 4 Norte 7 Norte 0 -- -- 99
2020-11-04 04:00:00 5.3 4 Nordeste 6 Nordeste 0 -- -- 99
2020-11-04 03:00:00 5.1 2 Oeste 5 Oeste 0 -- -- 98
2020-11-04 02:00:00 5.1 0 Calma 5 Oeste 0 -- -- 98
2020-11-04 01:00:00 5.1 3 Oeste 8 Noroeste 0 -- -- 98
2020-11-04 00:00:00 5.8 4 Noroeste 7 Noroeste 0 -- -- 97
2020-11-03 23:00:00 6.5 0 Calma 9 Norte 0 -- -- 97
2020-11-03 22:00:00 7.1 2 Noroeste 12 Este 0 -- -- 96
2020-11-03 21:00:00 7.3 8 Nordeste 14 Este 0 -- -- 98
2020-11-03 20:00:00 7.5 7 Nordeste 16 Nordeste 0 -- -- 98
2020-11-03 19:00:00 7.5 7 Norte 21 Norte 0 -- -- 98
2020-11-03 18:00:00 8.7 8 Norte 20 Norte 0 -- -- 97
2020-11-03 17:00:00 8.9 6 Nordeste 10 Oeste 0.8 -- -- 98
2020-11-03 16:00:00 8.8 7 Oeste 12 Oeste 0.2 -- -- 98
2020-11-03 15:00:00 8.8 5 Oeste 10 Noroeste 0 -- -- 98
2020-11-03 14:00:00 8.6 8 Noroeste 15 Oeste 0 -- -- 98
2020-11-03 13:00:00 8.4 10 Oeste 17 Oeste 0.2 -- -- 98
2020-11-03 12:00:00 8.6 10 Noroeste 15 Oeste 0 -- -- 98
2020-11-03 11:00:00 9 7 Oeste 20 Oeste 0.2 -- -- 98
2020-11-03 10:00:00 9.8 7 Oeste 22 Noroeste 0.2 -- -- 97
2020-11-03 09:00:00 10.8 11 Noroeste 23 Noroeste 1 -- -- 95
2020-11-03 08:00:00 11.1 4 Sur 15 Sudeste 0.2 -- -- 94
2020-11-03 07:00:00 11.5 6 Sudeste 13 Norte 1.6 -- -- 96
2020-11-03 06:00:00 11.9 2 Noroeste 5 Oeste 0 -- -- 91
2020-11-03 05:00:00 11.9 0 Calma 4 Noroeste 0 -- -- 89
2020-11-03 04:00:00 12.4 0 Calma 9 Sudoeste 0 -- -- 86
2020-11-03 03:00:00 12.2 3 Sur 6 Sudeste 0 -- -- 85
2020-11-03 02:00:00 11.7 5 Sudeste 6 Sudeste 0 -- -- 88
2020-11-03 01:00:00 11.8 0 Calma 10 Este 0 -- -- 87
2020-11-03 00:00:00 11.3 4 Sudeste 8 Sudeste 0 -- -- 91
2020-11-02 23:00:00 11.4 3 Sudeste 5 Sudeste 0 -- -- 90
2020-11-02 22:00:00 11.9 3 Sudeste 6 Sudeste 0 -- -- 89
2020-11-02 21:00:00 12 2 Sudeste 5 Sudeste 0 -- -- 88
2020-11-02 20:00:00 12.9 2 Sudeste 8 Noroeste 0 -- -- 84
2020-11-02 19:00:00 13.7 4 Noroeste 10 Noroeste 0 -- -- 81
2020-11-02 18:00:00 14.8 6 Noroeste 11 Noroeste 0 -- -- 77
2020-11-02 17:00:00 15.8 4 Noroeste 10 Noroeste 0 -- -- 73
2020-11-02 16:00:00 16.4 7 Oeste 12 Oeste 0 -- -- 67
2020-11-02 15:00:00 16.9 7 Oeste 14 Oeste 0 -- -- 67
2020-11-02 14:00:00 17.5 8 Sudoeste 18 Noroeste 0 -- -- 65
2020-11-02 13:00:00 15.9 8 Oeste 15 Oeste 0 -- -- 74
2020-11-02 12:00:00 13.8 4 Sudoeste 11 Oeste 0 -- -- 83
2020-11-02 11:00:00 12.5 4 Oeste 9 Oeste 0 -- -- 92
2020-11-02 10:00:00 12.2 3 Oeste 6 Oeste 0 -- -- 91
2020-11-02 09:00:00 11.9 0 Calma 5 Oeste 0 -- -- 90
2020-11-02 08:00:00 11.7 0 Calma 8 Sur 0 -- -- 89
2020-11-02 07:00:00 11.6 4 Sur 9 Sudoeste 0 -- -- 90
2020-11-02 06:00:00 11.3 4 Sur 9 Sur 0 -- -- 85
2020-11-02 05:00:00 11.1 4 Sudoeste 6 Sudoeste 0 -- -- 81
2020-11-02 04:00:00 11 0 Calma 8 Sudeste 0 -- -- 78
2020-11-02 03:00:00 9.9 5 Sudeste 8 Sudeste 0 -- -- 81
2020-11-02 02:00:00 10.8 7 Sudeste 10 Sudeste 0 -- -- 76
2020-11-02 01:00:00 10.3 8 Sudeste 10 Sudeste 0 -- -- 77
2020-11-02 00:00:00 10.6 8 Sudeste 12 Sudeste 0 -- -- 76
2020-11-01 23:00:00 11.2 6 Sudeste 11 Sudeste 0 -- -- 73
2020-11-01 22:00:00 11.3 9 Sudeste 13 Sudeste 0 -- -- 73
2020-11-01 21:00:00 11.6 8 Sudeste 12 Este 0 -- -- 75
2020-11-01 20:00:00 11.8 11 Sudeste 13 Sudeste 0 -- -- 76
2020-11-01 19:00:00 13.4 8 Sudeste 9 Sudeste 0 -- -- 71
2020-11-01 18:00:00 16.2 6 Noroeste 14 Noroeste 0 -- -- 61
2020-11-01 17:00:00 18.7 6 Noroeste 18 Noroeste 0 -- -- 54
2020-11-01 16:00:00 19.4 11 Noroeste 17 Noroeste 0 -- -- 50
2020-11-01 15:00:00 19 8 Noroeste 15 Oeste 0 -- -- 48
2020-11-01 14:00:00 18.8 7 Oeste 14 Noroeste 0 -- -- 53
2020-11-01 13:00:00 17.8 8 Noroeste 15 Noroeste 0 -- -- 61
2020-11-01 12:00:00 16.6 5 Oeste 12 Noroeste 0 -- -- 64
2020-11-01 11:00:00 15.5 3 Oeste 7 Oeste 0 -- -- 68
2020-11-01 10:00:00 14.4 5 Sur 8 Sudeste 0 -- -- 70
2020-11-01 09:00:00 10.5 5 Sudeste 10 Sudeste 0 -- -- 84
2020-11-01 08:00:00 7.6 6 Sudeste 13 Sudeste 0 -- -- 88
2020-11-01 07:00:00 7 10 Sudeste 12 Sudeste 0 -- -- 88
2020-11-01 06:00:00 7.7 0 Calma 8 Sudeste 0 -- -- 86
2020-11-01 05:00:00 7.7 0 Calma 6 Noroeste 0 -- -- 84
2020-11-01 04:00:00 8.5 5 Sudeste 8 Sudeste 0 -- -- 84
2020-11-01 03:00:00 8.8 7 Sudeste 9 Este 0 -- -- 84
2020-11-01 02:00:00 9.2 6 Sudeste 10 Sudeste 0 -- -- 80
2020-11-01 01:00:00 9.5 7 Sudeste 10 Sudeste 0 -- -- 78
2020-11-01 00:00:00 9.6 8 Sudeste 10 Sudeste 0 -- -- 77
2020-10-31 23:00:00 10.3 7 Sudeste 10 Sudeste 0 -- -- 76
2020-10-31 22:00:00 10.8 9 Sudeste 10 Sudeste 0 -- -- 74
2020-10-31 21:00:00 11 5 Sudeste 9 Sudeste 0 -- -- 73
2020-10-31 20:00:00 11.4 6 Sudeste 10 Sudeste 0 -- -- 72
2020-10-31 19:00:00 12.6 8 Sudeste 10 Sudeste 0 -- -- 69
2020-10-31 18:00:00 16.8 7 Noroeste 10 Noroeste 0 -- -- 54
2020-10-31 17:00:00 18.9 5 Oeste 14 Oeste 0 -- -- 50
2020-10-31 16:00:00 17.7 9 Noroeste 26 Noroeste 0 -- -- 54
2020-10-31 15:00:00 18.7 13 Oeste 27 Noroeste 0 -- -- 47
2020-10-31 14:00:00 18.9 19 Noroeste 27 Noroeste 0 -- -- 48
2020-10-31 13:00:00 18.4 10 Oeste 19 Oeste 0 -- -- 51
2020-10-31 12:00:00 16.9 7 Sur 12 Sur 0 -- -- 57
2020-10-31 11:00:00 15 3 Oeste 10 Noroeste 0 -- -- 63
2020-10-31 10:00:00 14 0 Calma 4 Oeste 0 -- -- 65
2020-10-31 09:00:00 11.1 3 Este 11 Sudeste 0 -- -- 68
2020-10-31 08:00:00 7.9 4 Sudeste 10 Sudeste 0 -- -- 76
2020-10-31 07:00:00 9.2 6 Sudeste 14 Sudeste 0 -- -- 72
2020-10-31 06:00:00 7.6 6 Sur 9 Sur 0 -- -- 73
2020-10-31 05:00:00 9.2 3 Sudoeste 4 Sudoeste 0 -- -- 66
2020-10-31 04:00:00 9.3 2 Sur 10 Sudeste 0 -- -- 64
2020-10-31 03:00:00 8.7 6 Sudeste 10 Sudeste 0 -- -- 68
2020-10-31 02:00:00 8.1 4 Sudeste 6 Sudeste 0 -- -- 73
2020-10-31 01:00:00 10.5 6 Sudeste 10 Sudeste 0 -- -- 63
2020-10-31 00:00:00 9.9 10 Sudeste 12 Este 0 -- -- 64
2020-10-30 23:00:00 9.3 7 Sudeste 12 Sudeste 0 -- -- 71
2020-10-30 22:00:00 9.6 10 Sudeste 13 Sudeste 0 -- -- 72
2020-10-30 21:00:00 9.2 9 Sudeste 12 Sudeste 0 -- -- 79
2020-10-30 20:00:00 10 4 Sudeste 9 Sudeste 0 -- -- 79
2020-10-30 19:00:00 12.7 9 Sudeste 10 Sudeste 0 -- -- 70
2020-10-30 18:00:00 17.2 3 Noroeste 9 Noroeste 0 -- -- 55
2020-10-30 17:00:00 18.2 5 Noroeste 13 Noroeste 0 -- -- 51
2020-10-30 16:00:00 18.9 8 Noroeste 14 Oeste 0 -- -- 50
2020-10-30 15:00:00 18.6 4 Noroeste 13 Noroeste 0 -- -- 51
2020-10-30 14:00:00 18.1 4 Noroeste 13 Noroeste 0 -- -- 50
2020-10-30 13:00:00 17.1 3 Sur 12 Oeste 0 -- -- 53
2020-10-30 12:00:00 16.1 3 Sudoeste 10 Oeste 0 -- -- 55
2020-10-30 11:00:00 15.1 4 Oeste 8 Oeste 0 -- -- 57
2020-10-30 10:00:00 14.3 0 Calma 8 Sudeste 0 -- -- 61
2020-10-30 09:00:00 9.9 8 Sudeste 13 Sudeste 0 -- -- 63
2020-10-30 08:00:00 6.8 12 Sudeste 13 Sudeste 0 -- -- 68
2020-10-30 07:00:00 6.6 10 Sudeste 14 Sudeste 0 -- -- 70
2020-10-30 06:00:00 6.4 8 Sudeste 12 Sudeste 0 -- -- 68
2020-10-30 05:00:00 5.8 8 Sudeste 10 Sudeste 0 -- -- 77
2020-10-30 04:00:00 6.1 8 Sudeste 10 Sudeste 0 -- -- 85
2020-10-30 03:00:00 6.3 9 Sudeste 11 Sudeste 0 -- -- 86
2020-10-30 02:00:00 5.9 6 Este 8 Este 0 -- -- 90
2020-10-30 01:00:00 6.8 0 Calma 5 Nordeste 0 -- -- 85
2020-10-30 00:00:00 7.7 0 Calma 13 Sudeste 0 -- -- 83
2020-10-29 23:00:00 7.5 11 Sudeste 14 Sudeste 0 -- -- 84
2020-10-29 22:00:00 8.3 7 Sudeste 11 Este 0 -- -- 84
2020-10-29 21:00:00 8.4 8 Sudeste 9 Sudeste 0 -- -- 84
2020-10-29 20:00:00 8.7 4 Sudeste 6 Sudeste 0 -- -- 81
2020-10-29 19:00:00 11.5 0 Calma 5 Noroeste 0 -- -- 71
2020-10-29 18:00:00 16 4 Noroeste 10 Noroeste 0 -- -- 56
2020-10-29 17:00:00 17.6 7 Noroeste 10 Oeste 0 -- -- 55
2020-10-29 16:00:00 18 4 Noroeste 9 Noroeste 0 -- -- 54
2020-10-29 15:00:00 17 2 Noroeste 10 Norte 0 -- -- 62
2020-10-29 14:00:00 15.1 6 Norte 13 Norte 0 -- -- 63
2020-10-29 13:00:00 13.8 4 Noroeste 13 Este 0 -- -- 72
2020-10-29 12:00:00 11.7 7 Nordeste 17 Norte 0 -- -- 77
2020-10-29 11:00:00 11.4 9 Norte 14 Norte 0 -- -- 84
2020-10-29 10:00:00 10.7 4 Nordeste 18 Sudeste 0 -- -- 80
2020-10-29 09:00:00 7.7 4 Sudeste 10 Este 0 -- -- 96
2020-10-29 08:00:00 4.7 6 Este 9 Este 0 -- -- 96
2020-10-29 07:00:00 5.1 4 Este 7 Sudeste 0 -- -- 93
2020-10-29 06:00:00 7.5 0 Calma 6 Este 0 -- -- 92
2020-10-29 05:00:00 7.8 0 Calma 7 Sudeste 0 -- -- 92
2020-10-29 04:00:00 8.3 0 Calma 5 Sudeste 0 -- -- 92
2020-10-29 03:00:00 8.9 3 Sudeste 6 Sur 0 -- -- 90
2020-10-29 02:00:00 9.3 2 Nordeste 6 Norte 0 -- -- 92
2020-10-29 01:00:00 9.5 3 Sudeste 7 Sur 0 -- -- 92
2020-10-29 00:00:00 10 2 Noroeste 6 Sur 0 -- -- 93
2020-10-28 23:00:00 10 4 Sur 5 Sur 0 -- -- 94
2020-10-28 22:00:00 9.8 3 Sudoeste 9 Sudoeste 0 -- -- 93
2020-10-28 21:00:00 10 8 Sudoeste 11 Sudoeste 0 -- -- 93
2020-10-28 20:00:00 9.9 5 Sur 8 Sur 0 -- -- 92
2020-10-28 19:00:00 11.4 3 Sudoeste 9 Noroeste 0 -- -- 88
2020-10-28 18:00:00 12.6 6 Oeste 23 Noroeste 0 -- -- 86
2020-10-28 17:00:00 13.4 16 Noroeste 25 Noroeste 0 -- -- 86
2020-10-28 16:00:00 13.9 15 Oeste 24 Oeste 0 -- -- 84
2020-10-28 15:00:00 13.2 18 Oeste 29 Sudoeste 0 -- -- 89
2020-10-28 14:00:00 13.1 11 Oeste 21 Oeste 0 -- -- 95
2020-10-28 13:00:00 12.6 14 Oeste 27 Oeste 0.4 -- -- 96
2020-10-28 12:00:00 12.8 11 Oeste 18 Oeste 0 -- -- 96
2020-10-28 11:00:00 11.7 10 Oeste 17 Oeste 0.2 -- -- 97
2020-10-28 10:00:00 11.4 9 Oeste 20 Oeste 0 -- -- 97
2020-10-28 09:00:00 11 9 Sudoeste 27 Oeste 0 -- -- 97
2020-10-28 08:00:00 10.5 13 Oeste 36 Oeste 0.2 -- -- 97
2020-10-28 07:00:00 10.6 10 Oeste 24 Oeste 0.2 -- -- 97
2020-10-28 06:00:00 10.5 13 Sudoeste 26 Sudoeste 0.2 -- -- 97
2020-10-28 05:00:00 10.7 13 Sudoeste 26 Sudoeste 0 -- -- 92
2020-10-28 04:00:00 10.2 8 Sudoeste 25 Oeste 0 -- -- 93
2020-10-28 03:00:00 10.5 15 Oeste 24 Oeste 0 -- -- 90
2020-10-28 02:00:00 10.1 10 Sudoeste 19 Sudoeste 0 -- -- 88
2020-10-28 01:00:00 9.9 9 Sudoeste 22 Sudoeste 0 -- -- 86
2020-10-28 00:00:00 9.9 8 Sudoeste 17 Oeste 0 -- -- 81